Time;durP1;ratioP1;P1;durP2;ratioP2;P2;SDS_P1;SDS_P2;PMS_P1;PMS_P2;Temp;Humidity;BMP_temperature;BMP_pressure;BME280_temperature;BME280_humidity;BME280_pressure;Samples;Min_cycle;Max_cycle;Signal;HPM_P1;HPM_P2
2024/02/12 00:01:12;;;;;;;;;;;;;;;12.09;79.43;95372.19;7400100;19;1835;-67
2024/02/12 00:03:41;;;;;;;;;;;;;;;12.09;79.43;95380.91;7400063;19;1779;-66
2024/02/12 00:06:10;;;;;;;;;;;;;;;12.12;79.88;95374.63;7399821;19;1079;-69
2024/02/12 00:08:41;;;;;;;;;;;;;;;12.13;79.84;95385.00;7399967;19;1768;-63
2024/02/12 00:11:09;;;;;;;;;;;;;;;12.06;80.45;95383.69;7400066;19;1023;-68
2024/02/12 00:13:39;;;;;;;;;;;;;;;12.09;80.14;95385.28;7399792;19;1915;-68
2024/02/12 00:16:09;;;;;;;;;;;;;;;12.08;79.93;95378.38;7399956;19;1051;-64
2024/02/12 00:18:38;;;;;;;;;;;;;;;12.01;80.14;95381.34;7399389;19;1175;-69
2024/02/12 00:21:07;;;;;;;;;;;;;;;12.06;79.55;95385.44;7398734;19;1842;-65
2024/02/12 00:23:36;;;;;;;;;;;;;;;12.09;79.51;95390.53;7397021;19;1009;-65
2024/02/12 00:26:07;;;;;;;;;;;;;;;12.01;79.16;95388.34;7399000;19;1136;-68
2024/02/12 00:28:36;;;;;;;;;;;;;;;12.02;79.54;95387.44;7398946;19;1038;-66
2024/02/12 00:31:04;;;;;;;;;;;;;;;12.05;79.38;95382.00;7398833;19;1077;-69
2024/02/12 00:33:33;;;;;;;;;;;;;;;12.01;79.79;95385.72;7399268;19;947;-73
2024/02/12 00:36:02;;;;;;;;;;;;;;;12.03;79.72;95380.38;7399022;19;1828;-66
2024/02/12 00:38:30;;;;;;;;;;;;;;;11.98;79.70;95391.19;7397523;19;1189;-66
2024/02/12 00:40:59;;;;;;;;;;;;;;;11.98;80.04;95383.31;7398351;19;1847;-67
2024/02/12 00:43:31;;;;;;;;;;;;;;;11.94;80.87;95389.66;7398558;19;1061;-65
2024/02/12 00:45:59;;;;;;;;;;;;;;;11.95;80.79;95386.13;7398782;19;1063;-72
2024/02/12 00:48:29;;;;;;;;;;;;;;;11.96;81.08;95396.53;7398647;19;1952;-69
2024/02/12 00:50:57;;;;;;;;;;;;;;;11.94;81.40;95371.31;7398204;19;1080;-66
2024/02/12 00:53:25;;;;;;;;;;;;;;;11.87;82.05;95365.63;7398921;19;1001;-61
2024/02/12 00:55:55;;;;;;;;;;;;;;;11.88;82.10;95362.06;7398301;19;1897;-65
2024/02/12 00:58:24;;;;;;;;;;;;;;;11.87;82.16;95363.03;7398467;19;974;-64
2024/02/12 01:00:56;;;;;;;;;;;;;;;11.87;82.15;95360.41;7398332;19;1923;-64
2024/02/12 01:03:25;;;;;;;;;;;;;;;11.90;82.24;95354.13;7397833;19;1096;-71
2024/02/12 01:05:53;;;;;;;;;;;;;;;11.88;82.38;95356.84;7397722;19;1224;-63
2024/02/12 01:08:22;;;;;;;;;;;;;;;11.93;82.86;95346.06;7397634;19;1136;-68
2024/02/12 01:10:50;;;;;;;;;;;;;;;11.94;83.02;95330.25;7397933;19;1803;-66
2024/02/12 01:13:19;;;;;;;;;;;;;;;11.95;82.47;95325.88;7398211;19;1744;-65
2024/02/12 01:15:49;;;;;;;;;;;;;;;11.94;82.66;95319.78;7397842;19;1922;-72
2024/02/12 01:18:20;;;;;;;;;;;;;;;11.93;82.86;95320.72;7397985;19;1009;-66
2024/02/12 01:20:49;;;;;;;;;;;;;;;11.93;82.68;95307.63;7397290;19;1048;-70
2024/02/12 01:23:17;;;;;;;;;;;;;;;11.94;82.72;95309.28;7395603;19;1846;-71
2024/02/12 01:25:47;;;;;;;;;;;;;;;11.99;82.66;95319.47;7397727;19;1032;-66
2024/02/12 01:28:16;;;;;;;;;;;;;;;11.99;83.11;95324.72;7397123;19;1056;-69
2024/02/12 01:30:44;;;;;;;;;;;;;;;11.99;84.35;95332.59;7397134;19;1301;-66
2024/02/12 01:33:13;;;;;;;;;;;;;;;11.94;86.28;95334.66;7397307;19;1014;-65
2024/02/12 01:35:56;;;;;;;;;;;;;;;11.84;88.18;95311.66;7397023;19;1065;-68
2024/02/12 01:38:25;;;;;;;;;;;;;;;11.69;91.31;95315.22;7395824;19;1171;-68
2024/02/12 01:40:53;;;;;;;;;;;;;;;11.52;93.01;95318.88;7397337;19;1122;-69
2024/02/12 01:43:30;;;;;;;;;;;;;;;11.43;94.05;95300.19;7395537;19;1846;-70
2024/02/12 01:45:59;;;;;;;;;;;;;;;11.38;92.80;95291.78;7396471;19;1238;-65
2024/02/12 01:48:29;;;;;;;;;;;;;;;11.31;95.23;95293.91;7396402;19;1222;-71
2024/02/12 01:51:06;;;;;;;;;;;;;;;11.29;96.51;95298.41;7396555;19;984;-66
2024/02/12 01:53:35;;;;;;;;;;;;;;;11.29;96.71;95290.53;7396516;19;1057;-70
2024/02/12 01:56:04;;;;;;;;;;;;;;;11.28;97.27;95294.09;7396359;19;1064;-71
2024/02/12 01:58:33;;;;;;;;;;;;;;;11.24;98.21;95288.22;7396444;19;1044;-66
2024/02/12 02:01:01;;;;;;;;;;;;;;;11.27;97.70;95284.56;7397165;19;1646;-69
2024/02/12 02:03:30;;;;;;;;;;;;;;;11.28;98.14;95288.88;7394513;19;1861;-65
2024/02/12 02:06:01;;;;;;;;;;;;;;;11.25;98.17;95282.06;7396323;19;1037;-67
2024/02/12 02:08:37;;;;;;;;;;;;;;;11.31;97.63;95267.75;7396115;19;1021;-71
2024/02/12 02:11:06;;;;;;;;;;;;;;;11.23;98.13;95262.16;7396528;19;1445;-71
2024/02/12 02:13:35;;;;;;;;;;;;;;;11.25;97.72;95265.50;7396746;19;1741;-66
2024/02/12 02:16:03;;;;;;;;;;;;;;;11.26;97.58;95256.72;7396295;19;1937;-68
2024/02/12 02:18:32;;;;;;;;;;;;;;;11.24;97.92;95258.59;7395822;19;1139;-69
2024/02/12 02:21:04;;;;;;;;;;;;;;;11.20;98.72;95249.25;7395826;19;1877;-71
2024/02/12 02:23:33;;;;;;;;;;;;;;;11.20;99.10;95264.94;7394344;19;1852;-73
2024/02/12 02:26:04;;;;;;;;;;;;;;;11.18;99.38;95258.94;7395710;19;1080;-68
2024/02/12 02:28:33;;;;;;;;;;;;;;;11.18;99.54;95259.81;7396112;19;1063;-71
2024/02/12 02:31:01;;;;;;;;;;;;;;;11.20;99.32;95250.06;7396022;19;1162;-67
2024/02/12 02:33:29;;;;;;;;;;;;;;;11.19;99.71;95248.41;7395449;19;1041;-70
2024/02/12 02:35:58;;;;;;;;;;;;;;;11.19;99.55;95243.16;7396234;19;1909;-70
2024/02/12 02:38:26;;;;;;;;;;;;;;;11.21;99.07;95243.06;7394346;19;1112;-70
2024/02/12 02:40:55;;;;;;;;;;;;;;;11.22;98.69;95249.97;7395942;19;1072;-72
2024/02/12 02:43:26;;;;;;;;;;;;;;;11.24;98.54;95253.34;7394001;19;1853;-68
2024/02/12 02:45:54;;;;;;;;;;;;;;;11.30;97.31;95263.44;7398226;19;1074;-72
2024/02/12 02:48:23;;;;;;;;;;;;;;;11.24;97.95;95246.34;7402894;19;1798;-65
2024/02/12 02:50:52;;;;;;;;;;;;;;;11.24;98.20;95253.34;7402786;19;1052;-72
2024/02/12 02:53:21;;;;;;;;;;;;;;;11.26;96.81;95254.13;7402212;19;1833;-69
2024/02/12 02:55:50;;;;;;;;;;;;;;;11.25;97.52;95273.34;7402188;19;1028;-63
2024/02/12 02:58:20;;;;;;;;;;;;;;;11.23;96.68;95247.25;7402487;19;1037;-75
2024/02/12 03:00:53;;;;;;;;;;;;;;;11.20;96.33;95247.44;7401952;19;1037;-69
2024/02/12 03:03:22;;;;;;;;;;;;;;;11.15;96.52;95257.38;7400370;19;1845;-66
2024/02/12 03:05:50;;;;;;;;;;;;;;;11.10;95.93;95248.94;7401760;19;1151;-68
2024/02/12 03:08:19;;;;;;;;;;;;;;;11.09;96.29;95253.34;7402069;19;1044;-65
2024/02/12 03:10:48;;;;;;;;;;;;;;;11.13;95.97;95254.00;7402073;19;949;-70
2024/02/12 03:13:18;;;;;;;;;;;;;;;11.09;96.62;95250.75;7401582;19;1041;-69
2024/02/12 03:15:46;;;;;;;;;;;;;;;11.11;96.02;95234.94;7401538;19;1092;-71
2024/02/12 03:18:20;;;;;;;;;;;;;;;11.11;95.90;95243.63;7401454;19;1103;-72
2024/02/12 03:20:49;;;;;;;;;;;;;;;11.12;94.20;95247.94;7401637;19;956;-71
2024/02/12 03:23:17;;;;;;;;;;;;;;;11.12;93.84;95239.25;7399547;19;1840;-73
2024/02/12 03:25:45;;;;;;;;;;;;;;;11.11;93.46;95232.34;7401458;19;1820;-73
2024/02/12 03:28:15;;;;;;;;;;;;;;;11.15;93.04;95230.34;7401512;19;961;-64
2024/02/12 03:30:44;;;;;;;;;;;;;;;11.11;92.82;95233.16;7401031;19;1025;-75
2024/02/12 03:33:12;;;;;;;;;;;;;;;11.14;92.21;95245.22;7401370;19;1035;-69
2024/02/12 03:35:43;;;;;;;;;;;;;;;11.15;90.14;95246.06;7401269;19;1024;-72
2024/02/12 03:38:12;;;;;;;;;;;;;;;11.14;91.00;95236.53;7399564;19;1207;-70
2024/02/12 03:40:40;;;;;;;;;;;;;;;11.15;92.48;95227.72;7401088;19;1124;-69
2024/02/12 03:43:10;;;;;;;;;;;;;;;11.10;91.26;95230.63;7399249;19;1858;-70
2024/02/12 03:45:44;;;;;;;;;;;;;;;11.08;91.52;95229.91;7400548;19;1091;-72
2024/02/12 03:59:50;;;;;;;;;;;;;;;11.12;91.99;95218.31;7400433;19;1040;-70
2024/02/12 04:01:59;;;;;;;;;;;;;;;11.18;90.87;95204.84;7399829;19;1849;-69
2024/02/12 04:04:27;;;;;;;;;;;;;;;11.21;91.42;95207.28;7399880;19;1013;-72
2024/02/12 04:07:00;;;;;;;;;;;;;;;11.24;92.15;95211.47;7400251;19;1009;-71
2024/02/12 04:09:29;;;;;;;;;;;;;;;11.20;92.31;95226.50;7399725;19;1005;-64
2024/02/12 04:11:57;;;;;;;;;;;;;;;11.23;92.41;95209.81;7399946;19;1829;-71
2024/02/12 04:14:29;;;;;;;;;;;;;;;11.21;93.14;95202.03;7399581;19;1834;-73
2024/02/12 04:16:58;;;;;;;;;;;;;;;11.16;91.89;95203.25;7399452;19;1011;-70
2024/02/12 04:19:27;;;;;;;;;;;;;;;11.08;93.80;95220.25;7399375;19;1271;-71
2024/02/12 04:21:55;;;;;;;;;;;;;;;10.98;94.71;95222.59;7399825;19;957;-68
2024/02/12 04:24:28;;;;;;;;;;;;;;;10.97;96.23;95223.53;7397550;19;1853;-63
2024/02/12 04:26:57;;;;;;;;;;;;;;;10.89;97.36;95231.00;7399143;19;1048;-68
2024/02/12 04:29:26;;;;;;;;;;;;;;;10.83;98.55;95215.66;7399483;19;1178;-65
2024/02/12 04:31:56;;;;;;;;;;;;;;;10.79;99.97;95216.78;7399017;19;997;-71
2024/02/12 04:34:25;;;;;;;;;;;;;;;10.68;100.00;95213.03;7398848;19;1096;-72
2024/02/12 04:36:55;;;;;;;;;;;;;;;10.66;100.00;95208.84;7399191;19;1706;-73
2024/02/12 04:39:23;;;;;;;;;;;;;;;10.60;100.00;95199.59;7396764;19;1140;-67
2024/02/12 04:41:55;;;;;;;;;;;;;;;10.56;100.00;95193.69;7398624;19;1036;-73
2024/02/12 04:44:24;;;;;;;;;;;;;;;10.59;100.00;95198.75;7396756;19;1865;-69
2024/02/12 04:46:52;;;;;;;;;;;;;;;10.57;100.00;95208.44;7398471;19;1017;-75
2024/02/12 04:49:21;;;;;;;;;;;;;;;10.55;100.00;95181.56;7398314;19;1044;-72
2024/02/12 04:51:51;;;;;;;;;;;;;;;10.58;100.00;95193.59;7398261;19;1100;-67
2024/02/12 04:54:19;;;;;;;;;;;;;;;10.59;100.00;95175.22;7398474;19;985;-72
2024/02/12 04:56:49;;;;;;;;;;;;;;;10.59;100.00;95185.69;7398450;19;1822;-66
2024/02/12 04:59:21;;;;;;;;;;;;;;;10.56;100.00;95172.78;7398434;19;1063;-70
2024/02/12 05:01:49;;;;;;;;;;;;;;;10.56;100.00;95175.41;7397973;19;1021;-66
2024/02/12 05:04:19;;;;;;;;;;;;;;;10.56;100.00;95164.94;7396585;19;1907;-69
2024/02/12 05:06:47;;;;;;;;;;;;;;;10.58;100.00;95162.22;7397792;19;1005;-69
2024/02/12 05:09:16;;;;;;;;;;;;;;;10.58;100.00;95159.63;7396621;19;1045;-71
2024/02/12 05:11:44;;;;;;;;;;;;;;;10.62;100.00;95148.03;7397727;19;1116;-69
2024/02/12 05:14:13;;;;;;;;;;;;;;;10.60;100.00;95139.47;7397968;19;1817;-73
2024/02/12 05:16:45;;;;;;;;;;;;;;;10.66;100.00;95154.78;7397839;19;870;-68
2024/02/12 05:24:35;;;;;;;;;;;;;;;10.55;100.00;95139.75;7396120;19;1865;-66
2024/02/12 05:27:04;;;;;;;;;;;;;;;10.52;100.00;95126.00;7397249;19;1135;-67
2024/02/12 05:29:32;;;;;;;;;;;;;;;10.52;100.00;95133.84;7397191;19;1396;-68
2024/02/12 05:32:03;;;;;;;;;;;;;;;10.49;100.00;95145.34;7397140;19;1045;-75
2024/02/12 05:34:33;;;;;;;;;;;;;;;10.46;100.00;95148.13;7397084;19;1056;-73
2024/02/12 05:37:01;;;;;;;;;;;;;;;10.50;100.00;95147.00;7396778;19;1096;-68
2024/02/12 05:39:31;;;;;;;;;;;;;;;10.47;100.00;95150.66;7394839;19;1805;-67
2024/02/12 05:42:00;;;;;;;;;;;;;;;10.40;100.00;95153.69;7397268;19;1063;-66
2024/02/12 05:44:29;;;;;;;;;;;;;;;10.39;100.00;95147.63;7395472;19;1841;-67
2024/02/12 05:46:57;;;;;;;;;;;;;;;10.39;100.00;95154.63;7396693;19;1087;-67
2024/02/12 05:49:28;;;;;;;;;;;;;;;10.38;100.00;95152.94;7396657;19;1104;-66
2024/02/12 05:51:57;;;;;;;;;;;;;;;10.40;100.00;95143.22;7396613;19;1020;-65
2024/02/12 05:54:26;;;;;;;;;;;;;;;10.39;100.00;95149.41;7396798;19;1903;-65
2024/02/12 05:56:54;;;;;;;;;;;;;;;10.36;100.00;95135.56;7396934;19;954;-68
2024/02/12 05:59:24;;;;;;;;;;;;;;;10.39;100.00;95142.41;7396851;19;1044;-71
2024/02/12 06:01:53;;;;;;;;;;;;;;;10.41;100.00;95142.31;7396868;19;1005;-69
2024/02/12 06:04:21;;;;;;;;;;;;;;;10.43;100.00;95143.91;7394508;19;1988;-69
2024/02/12 06:06:52;;;;;;;;;;;;;;;10.43;100.00;95148.28;7396578;19;1837;-70
2024/02/12 06:09:21;;;;;;;;;;;;;;;10.44;100.00;95142.09;7396105;19;1100;-74
2024/02/12 06:11:49;;;;;;;;;;;;;;;10.47;100.00;95149.78;7396626;19;1055;-67
2024/02/12 06:14:18;;;;;;;;;;;;;;;10.46;100.00;95153.34;7396475;19;1830;-70
2024/02/12 06:16:46;;;;;;;;;;;;;;;10.48;100.00;95146.28;7396483;19;929;-70
2024/02/12 06:19:15;;;;;;;;;;;;;;;10.53;100.00;95146.81;7396158;19;1808;-69
2024/02/12 06:21:45;;;;;;;;;;;;;;;10.55;100.00;95138.88;7401414;19;945;-64
2024/02/12 06:24:16;;;;;;;;;;;;;;;10.57;100.00;95147.50;7401591;19;1849;-72
2024/02/12 06:26:45;;;;;;;;;;;;;;;10.58;100.00;95143.94;7403204;19;946;-74
2024/02/12 06:29:14;;;;;;;;;;;;;;;10.56;100.00;95154.47;7403046;19;1993;-69
2024/02/12 06:31:45;;;;;;;;;;;;;;;10.57;100.00;95150.09;7402992;19;1390;-73
2024/02/12 06:34:13;;;;;;;;;;;;;;;10.53;100.00;95154.66;7402860;19;1219;-67
2024/02/12 06:36:41;;;;;;;;;;;;;;;10.48;100.00;95159.34;7402815;19;1044;-72
2024/02/12 06:39:10;;;;;;;;;;;;;;;10.42;100.00;95134.34;7400326;19;1148;-70
2024/02/12 06:41:44;;;;;;;;;;;;;;;10.41;100.00;95126.63;7402947;19;1922;-68
2024/02/12 06:44:13;;;;;;;;;;;;;;;10.34;100.00;95113.06;7401359;19;1842;-69
2024/02/12 06:46:45;;;;;;;;;;;;;;;10.36;100.00;95112.03;7402455;19;1100;-69
2024/02/12 06:49:13;;;;;;;;;;;;;;;10.34;100.00;95103.47;7402325;19;1100;-73
2024/02/12 06:51:43;;;;;;;;;;;;;;;10.33;100.00;95093.09;7402391;19;1076;-70
2024/02/12 06:54:12;;;;;;;;;;;;;;;10.31;100.00;95084.50;7402271;19;1013;-69
2024/02/12 06:56:46;;;;;;;;;;;;;;;10.24;100.00;95071.81;7402150;19;1123;-69
2024/02/12 06:59:15;;;;;;;;;;;;;;;10.23;100.00;95053.59;7402064;19;1024;-66
2024/02/12 07:01:43;;;;;;;;;;;;;;;10.18;100.00;95040.00;7402247;19;878;-68
2024/02/12 07:04:12;;;;;;;;;;;;;;;10.13;100.00;95039.41;7400681;19;1951;-72
2024/02/12 07:06:41;;;;;;;;;;;;;;;10.09;100.00;95052.66;7401857;19;1072;-66
2024/02/12 07:09:09;;;;;;;;;;;;;;;10.10;100.00;95067.41;7401647;19;1072;-70
2024/02/12 07:11:38;;;;;;;;;;;;;;;10.08;100.00;95071.88;7402139;19;1041;-63
2024/02/12 07:14:09;;;;;;;;;;;;;;;10.01;100.00;95080.16;7402024;19;1157;-70
2024/02/12 07:16:37;;;;;;;;;;;;;;;9.95;100.00;95100.50;7401963;19;1007;-69
2024/02/12 07:19:06;;;;;;;;;;;;;;;9.89;100.00;95139.19;7401872;19;964;-67
2024/02/12 07:21:35;;;;;;;;;;;;;;;9.50;100.00;95139.63;7401851;19;1046;-66
2024/02/12 07:24:04;;;;;;;;;;;;;;;9.40;100.00;95128.00;7400557;19;1841;-67
2024/02/12 07:26:33;;;;;;;;;;;;;;;9.41;100.00;95135.75;7401237;19;1111;-65
2024/02/12 07:29:01;;;;;;;;;;;;;;;9.54;100.00;95128.06;7401271;19;1823;-70
2024/02/12 07:31:32;;;;;;;;;;;;;;;10.78;100.00;95119.19;7400625;19;1821;-71
2024/02/12 07:34:03;;;;;;;;;;;;;;;12.26;87.82;95109.78;7401373;19;956;-65
2024/02/12 07:36:31;;;;;;;;;;;;;;;13.48;80.34;95092.69;7401306;19;1029;-68
2024/02/12 07:38:59;;;;;;;;;;;;;;;14.62;74.09;95081.66;7398906;19;1061;-70
2024/02/12 07:41:28;;;;;;;;;;;;;;;15.25;69.20;95073.28;7400771;19;1211;-69
2024/02/12 07:43:56;;;;;;;;;;;;;;;15.03;67.43;95095.22;7400334;19;1841;-71
2024/02/12 07:46:25;;;;;;;;;;;;;;;14.57;69.95;95099.63;7400982;19;1808;-67
2024/02/12 07:48:57;;;;;;;;;;;;;;;13.94;72.07;95095.53;7400829;19;1011;-71
2024/02/12 07:51:25;;;;;;;;;;;;;;;13.65;73.73;95094.13;7400497;19;1196;-67
2024/02/12 07:53:54;;;;;;;;;;;;;;;13.71;72.69;95100.69;7400219;19;1072;-70
2024/02/12 07:56:22;;;;;;;;;;;;;;;13.31;73.55;95112.28;7400405;19;914;-67
2024/02/12 07:58:52;;;;;;;;;;;;;;;13.09;75.91;95112.03;7398615;19;1323;-74
2024/02/12 08:01:20;;;;;;;;;;;;;;;13.26;74.37;95108.22;7400252;19;1822;-65
2024/02/12 08:03:50;;;;;;;;;;;;;;;12.99;75.91;95109.22;7399709;19;1850;-68
2024/02/12 08:06:21;;;;;;;;;;;;;;;12.67;76.95;95108.88;7400265;19;1043;-70
2024/02/12 08:08:49;;;;;;;;;;;;;;;12.22;79.24;95099.63;7400149;19;937;-69
2024/02/12 08:11:20;;;;;;;;;;;;;;;11.92;81.92;95098.09;7400116;19;1040;-72
2024/02/12 08:13:50;;;;;;;;;;;;;;;11.66;85.32;95104.13;7399540;19;1045;-71
2024/02/12 08:16:21;;;;;;;;;;;;;;;11.43;86.16;95116.06;7399467;19;1072;-69
2024/02/12 08:18:49;;;;;;;;;;;;;;;11.03;87.08;95133.38;7399438;19;1126;-68
2024/02/12 08:21:17;;;;;;;;;;;;;;;10.76;90.33;95139.38;7399791;19;968;-67
2024/02/12 08:23:49;;;;;;;;;;;;;;;10.70;90.74;95158.03;7399232;19;1849;-71
2024/02/12 08:26:17;;;;;;;;;;;;;;;10.42;92.08;95157.88;7399178;19;1037;-66
2024/02/12 08:28:46;;;;;;;;;;;;;;;10.18;91.76;95163.63;7399361;19;2003;-74
2024/02/12 08:31:18;;;;;;;;;;;;;;;10.03;92.43;95169.75;7399002;19;1049;-71
2024/02/12 08:33:47;;;;;;;;;;;;;;;9.87;93.12;95181.06;7398943;19;1049;-70
2024/02/12 08:36:17;;;;;;;;;;;;;;;9.78;94.27;95184.22;7398879;19;1021;-76
2024/02/12 08:38:45;;;;;;;;;;;;;;;9.73;96.48;95187.09;7397276;19;1946;-71
2024/02/12 08:41:24;;;;;;;;;;;;;;;9.57;97.37;95201.00;7398716;19;1065;-69
2024/02/12 08:43:53;;;;;;;;;;;;;;;9.48;98.76;95206.72;7396298;19;1857;-69
2024/02/12 08:46:21;;;;;;;;;;;;;;;9.52;97.84;95215.22;7398522;19;1017;-69
2024/02/12 08:48:50;;;;;;;;;;;;;;;9.34;98.21;95221.34;7398910;19;1031;-74
2024/02/12 08:51:18;;;;;;;;;;;;;;;9.22;99.77;95214.22;7398289;19;1096;-71
2024/02/12 09:02:36;;;;;;;;;;;;;;;10.01;100.00;95200.34;7398616;19;844;-70
2024/02/12 09:05:10;;;;;;;;;;;;;;;10.42;100.00;95207.53;7396951;19;1855;-68
2024/02/12 09:07:38;;;;;;;;;;;;;;;10.62;98.03;95208.19;7398018;19;1021;-72
2024/02/12 09:10:09;;;;;;;;;;;;;;;10.95;96.88;95212.31;7398374;19;985;-75
2024/02/12 09:12:39;;;;;;;;;;;;;;;11.07;94.22;95210.72;7397881;19;1013;-64
2024/02/12 09:15:10;;;;;;;;;;;;;;;11.18;94.63;95196.16;7397766;19;1013;-65
2024/02/12 09:17:41;;;;;;;;;;;;;;;11.48;90.92;95180.31;7398226;19;996;-65
2024/02/12 09:20:11;;;;;;;;;;;;;;;11.81;87.88;95156.44;7397548;19;1079;-68
2024/02/12 09:22:40;;;;;;;;;;;;;;;12.13;86.26;95138.63;7398020;19;1013;-66
2024/02/12 09:25:11;;;;;;;;;;;;;;;12.25;81.99;95123.84;7396735;19;1854;-65
2024/02/12 09:27:42;;;;;;;;;;;;;;;12.63;82.18;95134.47;7397404;19;1053;-65
2024/02/12 09:30:11;;;;;;;;;;;;;;;12.93;83.10;95135.91;7397276;19;934;-70
2024/02/12 09:32:43;;;;;;;;;;;;;;;12.91;78.63;95148.28;7397260;19;1069;-64
2024/02/12 09:35:12;;;;;;;;;;;;;;;13.17;79.51;95157.91;7396973;19;1227;-65
2024/02/12 09:37:40;;;;;;;;;;;;;;;13.18;77.34;95176.16;7396376;19;1849;-67
2024/02/12 09:40:11;;;;;;;;;;;;;;;13.10;72.25;95195.06;7396893;19;1013;-69
2024/02/12 09:42:42;;;;;;;;;;;;;;;13.20;80.10;95194.44;7396897;19;1005;-67
2024/02/12 09:45:13;;;;;;;;;;;;;;;13.36;77.47;95205.56;7395668;19;1853;-67
2024/02/12 09:47:45;;;;;;;;;;;;;;;13.39;78.31;95199.22;7397317;19;1029;-75
2024/02/12 09:50:15;;;;;;;;;;;;;;;13.36;75.44;95210.81;7396635;19;1092;-72
2024/02/12 09:52:44;;;;;;;;;;;;;;;13.47;76.00;95199.53;7396538;19;929;-68
2024/02/12 09:55:14;;;;;;;;;;;;;;;13.68;76.31;95212.13;7400210;19;1075;-67
2024/02/12 09:57:43;;;;;;;;;;;;;;;13.80;79.96;95207.78;7404679;19;1067;-70
2024/02/12 10:00:12;;;;;;;;;;;;;;;14.01;76.19;95208.00;7404096;19;1100;-70
2024/02/12 10:02:44;;;;;;;;;;;;;;;14.06;73.78;95197.13;7404361;19;1887;-71
2024/02/12 10:05:13;;;;;;;;;;;;;;;14.17;70.09;95191.09;7402237;19;1846;-70
2024/02/12 10:07:42;;;;;;;;;;;;;;;14.12;70.74;95187.97;7403870;19;1045;-66
2024/02/12 10:10:12;;;;;;;;;;;;;;;14.18;75.73;95178.78;7403778;19;1104;-70
2024/02/12 10:12:40;;;;;;;;;;;;;;;14.08;67.92;95176.00;7403700;19;1079;-70
2024/02/12 10:15:13;;;;;;;;;;;;;;;14.05;69.91;95169.19;7403956;19;970;-66
2024/02/12 10:17:45;;;;;;;;;;;;;;;13.98;71.80;95162.69;7403563;19;1006;-72
2024/02/12 10:20:13;;;;;;;;;;;;;;;13.93;69.74;95156.94;7403488;19;1013;-70
2024/02/12 10:22:44;;;;;;;;;;;;;;;14.10;68.43;95153.91;7403388;19;1209;-75
2024/02/12 10:25:12;;;;;;;;;;;;;;;14.02;67.74;95157.09;7401681;19;1856;-66
2024/02/12 10:27:42;;;;;;;;;;;;;;;13.90;68.42;95158.00;7403473;19;1822;-68
2024/02/12 10:30:11;;;;;;;;;;;;;;;13.91;67.48;95149.19;7403295;19;1973;-67
2024/02/12 10:32:40;;;;;;;;;;;;;;;13.96;68.75;95151.44;7403726;19;1625;-66
2024/02/12 10:35:14;;;;;;;;;;;;;;;13.99;68.88;95152.06;7403303;19;1057;-69
2024/02/12 10:37:44;;;;;;;;;;;;;;;13.93;66.03;95155.16;7401912;19;1139;-72
2024/02/12 10:40:15;;;;;;;;;;;;;;;13.88;67.22;95160.72;7402850;19;1001;-70
2024/02/12 10:42:48;;;;;;;;;;;;;;;13.87;68.05;95160.84;7403143;19;1024;-69
2024/02/12 10:45:17;;;;;;;;;;;;;;;13.88;67.58;95157.28;7401820;19;1850;-71
2024/02/12 10:47:47;;;;;;;;;;;;;;;14.07;67.82;95156.75;7403090;19;1028;-64
2024/02/12 10:50:18;;;;;;;;;;;;;;;14.18;67.18;95161.19;7402989;19;1012;-74
2024/02/12 10:52:48;;;;;;;;;;;;;;;14.31;65.66;95168.19;7402920;19;1055;-70
2024/02/12 10:55:16;;;;;;;;;;;;;;;14.31;62.98;95174.28;7402801;19;1040;-69
2024/02/12 10:57:46;;;;;;;;;;;;;;;14.25;65.04;95172.13;7402972;19;1775;-70
2024/02/12 11:00:23;;;;;;;;;;;;;;;14.17;65.67;95171.88;7402539;19;1025;-72
2024/02/12 11:02:51;;;;;;;;;;;;;;;13.99;65.20;95174.88;7401970;19;1033;-75
2024/02/12 11:05:23;;;;;;;;;;;;;;;13.87;64.96;95171.34;7401281;19;1843;-69
2024/02/12 11:08:02;;;;;;;;;;;;;;;13.72;67.10;95168.06;7400836;19;1004;-68
2024/02/12 11:10:34;;;;;;;;;;;;;;;13.68;68.06;95159.56;7402229;19;1005;-66
2024/02/12 11:13:08;;;;;;;;;;;;;;;13.74;66.52;95161.75;7401702;19;1056;-74
2024/02/12 11:15:37;;;;;;;;;;;;;;;13.80;65.04;95164.88;7401555;19;1087;-67
2024/02/12 11:18:15;;;;;;;;;;;;;;;13.71;64.01;95172.50;7401548;19;1147;-73
2024/02/12 11:20:53;;;;;;;;;;;;;;;13.56;62.76;95174.44;7401428;19;1064;-68
2024/02/12 11:23:22;;;;;;;;;;;;;;;13.43;65.57;95168.34;7401565;19;1135;-70
2024/02/12 11:25:51;;;;;;;;;;;;;;;13.31;65.67;95168.28;7399733;19;1841;-72
2024/02/12 11:28:20;;;;;;;;;;;;;;;13.31;65.72;95156.94;7401279;19;1118;-67
2024/02/12 11:30:49;;;;;;;;;;;;;;;13.29;64.00;95154.41;7401110;19;1088;-70
2024/02/12 11:33:17;;;;;;;;;;;;;;;13.22;64.96;95153.19;7401701;19;1041;-67
2024/02/12 11:35:45;;;;;;;;;;;;;;;13.14;65.05;95146.69;7401349;19;1055;-66
2024/02/12 11:38:17;;;;;;;;;;;;;;;13.00;66.79;95152.91;7399893;19;1786;-70
2024/02/12 11:40:45;;;;;;;;;;;;;;;12.82;66.50;95148.94;7400759;19;1104;-71
2024/02/12 11:43:14;;;;;;;;;;;;;;;12.70;66.56;95148.81;7400665;19;1080;-75
2024/02/12 11:45:43;;;;;;;;;;;;;;;12.56;68.73;95149.78;7399306;19;1850;-70
2024/02/12 11:48:13;;;;;;;;;;;;;;;12.47;68.43;95148.63;7400813;19;1946;-63
2024/02/12 11:50:42;;;;;;;;;;;;;;;12.36;67.69;95145.88;7400841;19;965;-66
2024/02/12 11:53:11;;;;;;;;;;;;;;;12.19;69.98;95137.38;7401156;19;1636;-71
2024/02/12 11:55:44;;;;;;;;;;;;;;;12.18;69.65;95145.31;7400792;19;1000;-64
2024/02/12 11:58:13;;;;;;;;;;;;;;;12.18;70.04;95146.19;7400208;19;1025;-70
2024/02/12 12:00:44;;;;;;;;;;;;;;;12.22;70.43;95142.41;7400099;19;1032;-72
2024/02/12 12:03:13;;;;;;;;;;;;;;;12.24;69.52;95139.69;7400129;19;1013;-72
2024/02/12 12:05:43;;;;;;;;;;;;;;;12.36;69.28;95138.88;7399078;19;1988;-70
2024/02/12 12:08:12;;;;;;;;;;;;;;;12.43;68.72;95135.84;7399895;19;1030;-73
2024/02/12 12:10:44;;;;;;;;;;;;;;;12.50;68.32;95134.47;7400152;19;1787;-70
2024/02/12 12:13:14;;;;;;;;;;;;;;;12.48;65.37;95139.81;7400222;19;1027;-71
2024/02/12 12:15:45;;;;;;;;;;;;;;;12.24;66.62;95135.28;7399620;19;1089;-69
2024/02/12 12:18:14;;;;;;;;;;;;;;;12.21;66.20;95130.25;7397016;19;1107;-70
2024/02/12 12:20:43;;;;;;;;;;;;;;;12.20;66.54;95125.09;7399966;19;996;-74
2024/02/12 12:23:13;;;;;;;;;;;;;;;12.36;67.02;95130.16;7399937;19;1178;-72
2024/02/12 12:25:44;;;;;;;;;;;;;;;12.46;65.44;95139.06;7398897;19;1853;-67
2024/02/12 12:28:14;;;;;;;;;;;;;;;12.53;65.21;95134.25;7399353;19;1099;-73
2024/02/12 12:30:42;;;;;;;;;;;;;;;12.40;64.10;95131.63;7399100;19;1096;-75
2024/02/12 12:33:11;;;;;;;;;;;;;;;12.31;65.37;95125.22;7399602;19;968;-69
2024/02/12 12:35:40;;;;;;;;;;;;;;;12.29;65.64;95134.13;7398953;19;1041;-67
2024/02/12 12:38:09;;;;;;;;;;;;;;;12.37;66.37;95132.66;7398072;19;1069;-66
2024/02/12 12:40:38;;;;;;;;;;;;;;;12.28;64.74;95132.47;7399280;19;1068;-70
2024/02/12 12:43:10;;;;;;;;;;;;;;;12.26;64.69;95133.38;7399177;19;1521;-68
2024/02/12 12:45:38;;;;;;;;;;;;;;;12.33;66.85;95128.59;7397870;19;1838;-64
2024/02/12 12:48:09;;;;;;;;;;;;;;;12.35;64.81;95124.09;7398569;19;1159;-70
2024/02/12 12:50:38;;;;;;;;;;;;;;;12.35;65.56;95134.56;7398427;19;994;-63
2024/02/12 12:53:08;;;;;;;;;;;;;;;12.27;68.85;95152.59;7399230;19;1651;-69
2024/02/12 12:55:37;;;;;;;;;;;;;;;11.93;72.05;95147.78;7398824;19;965;-72
2024/02/12 12:58:06;;;;;;;;;;;;;;;11.77;73.89;95147.09;7398339;19;1232;-67
2024/02/12 13:00:40;;;;;;;;;;;;;;;11.59;74.58;95140.31;7398657;19;956;-71
2024/02/12 13:03:11;;;;;;;;;;;;;;;11.51;75.14;95137.38;7398142;19;1868;-65
2024/02/12 13:05:42;;;;;;;;;;;;;;;11.40;76.41;95137.19;7397390;19;1861;-68
2024/02/12 13:08:12;;;;;;;;;;;;;;;11.27;77.62;95135.38;7398551;19;1036;-69
2024/02/12 13:10:41;;;;;;;;;;;;;;;11.24;77.58;95141.66;7398399;19;1004;-70
2024/02/12 13:13:11;;;;;;;;;;;;;;;11.19;78.60;95142.84;7398265;19;1144;-67
2024/02/12 13:15:42;;;;;;;;;;;;;;;11.19;77.75;95140.25;7398069;19;1497;-68
2024/02/12 13:18:12;;;;;;;;;;;;;;;11.14;77.80;95150.16;7397654;19;1079;-74
2024/02/12 13:20:42;;;;;;;;;;;;;;;11.05;78.11;95154.19;7397579;19;1821;-70
2024/02/12 13:23:10;;;;;;;;;;;;;;;11.03;78.50;95156.91;7397893;19;917;-69
2024/02/12 13:25:39;;;;;;;;;;;;;;;11.07;79.61;95155.78;7397084;19;1907;-64
2024/02/12 13:28:09;;;;;;;;;;;;;;;11.12;78.95;95166.81;7398174;19;1725;-68
2024/02/12 13:30:38;;;;;;;;;;;;;;;11.16;77.41;95172.69;7396330;19;1124;-68
2024/02/12 13:33:09;;;;;;;;;;;;;;;11.17;76.91;95171.75;7397332;19;1033;-66